createdAt,value
2018-06-27T00:02:22.182Z,8.93
2018-06-27T00:04:50.348Z,12.00
2018-06-27T00:07:18.532Z,9.57
2018-06-27T00:09:46.666Z,10.82
2018-06-27T00:12:14.808Z,10.25
2018-06-27T00:14:43.453Z,8.38
2018-06-27T00:17:12.134Z,9.90
2018-06-27T00:19:40.202Z,8.65
2018-06-27T00:22:08.312Z,9.25
2018-06-27T00:24:37.188Z,8.65
2018-06-27T00:27:05.293Z,9.55
2018-06-27T00:29:34.178Z,9.70
2018-06-27T00:32:03.065Z,10.60
2018-06-27T00:34:31.946Z,9.93
2018-06-27T00:37:00.826Z,9.55
2018-06-27T00:39:28.954Z,10.23
2018-06-27T00:41:57.076Z,8.55
2018-06-27T00:44:25.300Z,9.20
2018-06-27T00:46:54.327Z,8.98
2018-06-27T00:49:22.444Z,9.65
2018-06-27T00:51:50.551Z,9.73
2018-06-27T00:54:18.731Z,9.75
2018-06-27T00:56:46.843Z,12.37
2018-06-27T00:59:16.106Z,10.68
2018-06-27T01:01:44.220Z,10.75
2018-06-27T01:04:13.905Z,11.20
2018-06-27T01:06:42.014Z,11.50
2018-06-27T01:09:10.944Z,9.90
2018-06-27T01:11:39.055Z,10.07
2018-06-27T01:14:07.221Z,10.00
2018-06-27T01:16:35.331Z,9.02
2018-06-27T01:19:04.224Z,8.30
2018-06-27T01:21:32.317Z,11.35
2018-06-27T01:24:00.539Z,15.05
2018-06-27T01:26:28.706Z,12.70
2018-06-27T01:28:56.833Z,12.88
2018-06-27T01:31:24.940Z,10.10
2018-06-27T01:33:53.052Z,11.25
2018-06-27T01:36:21.930Z,9.70
2018-06-27T01:38:51.194Z,9.40
2018-06-27T01:41:20.124Z,12.13
2018-06-27T01:43:49.322Z,9.90
2018-06-27T01:46:17.417Z,15.65
2018-06-27T01:48:45.529Z,9.38
2018-06-27T01:51:13.636Z,8.75
2018-06-27T01:53:41.734Z,7.90
2018-06-27T01:56:09.852Z,9.60
2018-06-27T01:58:37.944Z,9.32
2018-06-27T02:01:06.061Z,9.93
2018-06-27T02:03:34.162Z,8.48
2018-06-27T02:06:02.299Z,9.65
2018-06-27T02:08:31.164Z,9.77
2018-06-27T02:11:00.048Z,9.77
2018-06-27T02:13:28.179Z,11.40
2018-06-27T02:15:56.294Z,11.00
2018-06-27T02:18:25.182Z,11.50
2018-06-27T02:20:54.097Z,11.00
2018-06-27T02:23:22.220Z,12.13
2018-06-27T02:25:50.341Z,11.38
2018-06-27T02:28:19.221Z,10.93
2018-06-27T02:30:48.109Z,11.68
2018-06-27T02:33:17.009Z,10.77
2018-06-27T02:35:45.902Z,9.30
2018-06-27T02:38:14.778Z,10.48
2018-06-27T02:40:43.671Z,10.60
2018-06-27T02:43:12.562Z,11.32
2018-06-27T02:45:40.723Z,9.52
2018-06-27T02:48:08.842Z,11.25
2018-06-27T02:50:36.966Z,11.10
2018-06-27T02:53:05.091Z,10.23
2018-06-27T02:55:33.208Z,10.18
2018-06-27T02:58:01.343Z,10.75
2018-06-27T03:00:29.475Z,11.15
2018-06-27T03:02:58.356Z,9.82
2018-06-27T03:05:27.347Z,11.70
2018-06-27T03:07:55.466Z,9.68
2018-06-27T03:10:23.583Z,13.15
2018-06-27T03:12:51.723Z,10.70
2018-06-27T03:15:20.651Z,10.82
2018-06-27T03:17:48.846Z,11.70
2018-06-27T03:20:17.804Z,11.02
2018-06-27T03:22:46.602Z,10.07
2018-06-27T03:25:15.327Z,10.48
2018-06-27T03:27:44.233Z,11.45
2018-06-27T03:30:12.354Z,11.75
2018-06-27T03:32:42.133Z,11.55
2018-06-27T03:35:10.246Z,13.07
2018-06-27T03:37:39.053Z,11.35
2018-06-27T03:40:07.937Z,11.15
2018-06-27T03:42:36.078Z,10.75
2018-06-27T03:45:04.199Z,10.30
2018-06-27T03:47:33.093Z,10.77
2018-06-27T03:50:01.974Z,9.20
2018-06-27T03:52:30.853Z,14.25
2018-06-27T03:54:59.741Z,10.85
2018-06-27T03:57:27.861Z,9.70
2018-06-27T03:59:55.988Z,10.80
2018-06-27T04:02:24.101Z,9.82
2018-06-27T04:04:52.212Z,9.00
2018-06-27T04:07:20.406Z,10.50
2018-06-27T04:09:48.548Z,10.30
2018-06-27T04:12:16.649Z,10.98
2018-06-27T04:14:44.770Z,12.82
2018-06-27T04:17:13.455Z,10.30
2018-06-27T04:19:42.306Z,9.05
2018-06-27T04:22:11.199Z,9.32
2018-06-27T04:24:39.313Z,9.30
2018-06-27T04:27:07.411Z,9.50
2018-06-27T04:29:35.520Z,10.73
2018-06-27T04:32:04.392Z,10.35
2018-06-27T04:34:32.581Z,11.00
2018-06-27T04:37:01.474Z,11.70
2018-06-27T04:39:30.354Z,11.63
2018-06-27T04:41:58.481Z,11.75
2018-06-27T04:44:26.731Z,10.63
2018-06-27T04:46:54.852Z,11.25
2018-06-27T04:49:23.126Z,10.88
2018-06-27T04:51:51.220Z,9.77
2018-06-27T04:54:20.421Z,9.82
2018-06-27T04:57:09.295Z,11.35
2018-06-27T04:59:40.801Z,11.85
2018-06-27T05:02:10.783Z,9.80
2018-06-27T05:04:40.627Z,11.50
2018-06-27T05:07:12.221Z,10.23
2018-06-27T05:09:40.358Z,10.18
2018-06-27T05:12:08.467Z,11.45
2018-06-27T05:14:37.358Z,11.88
2018-06-27T05:17:05.491Z,13.15
2018-06-27T05:19:33.729Z,12.05
2018-06-27T05:22:03.116Z,17.15
2018-06-27T05:24:31.299Z,13.35
2018-06-27T05:27:00.171Z,11.85
2018-06-27T05:29:28.741Z,11.75
2018-06-27T05:31:56.919Z,14.07
2018-06-27T05:34:26.327Z,14.02
2018-06-27T05:36:55.192Z,15.95
2018-06-27T05:39:23.315Z,12.00
2018-06-27T05:41:52.209Z,15.32
2018-06-27T05:44:21.458Z,12.35
2018-06-27T05:46:49.554Z,12.98
2018-06-27T05:49:17.678Z,12.30
2018-06-27T05:51:46.784Z,16.40
2018-06-27T05:54:15.861Z,14.05
2018-06-27T05:56:43.991Z,14.07
2018-06-27T05:59:12.126Z,14.13
2018-06-27T06:01:40.238Z,15.57
2018-06-27T06:04:09.459Z,18.75
2018-06-27T06:06:38.362Z,19.10
2018-06-27T06:09:06.492Z,19.95
2018-06-27T06:11:35.328Z,17.30
2018-06-27T06:14:03.403Z,18.48
2018-06-27T06:16:31.557Z,17.75
2018-06-27T06:19:03.910Z,20.20
2018-06-27T06:21:32.066Z,16.52
2018-06-27T06:24:00.178Z,17.87
2018-06-27T06:26:29.144Z,18.02
2018-06-27T06:28:57.254Z,18.08
2018-06-27T06:31:25.385Z,15.95
2018-06-27T06:33:53.751Z,19.58
2018-06-27T06:36:21.854Z,15.02
2018-06-27T06:38:50.747Z,14.27
2018-06-27T06:41:19.649Z,14.90
2018-06-27T06:43:48.624Z,13.43
2018-06-27T06:46:16.781Z,13.48
2018-06-27T06:48:44.892Z,12.07
2018-06-27T06:51:13.020Z,11.85
2018-06-27T06:53:42.284Z,12.40
2018-06-27T06:56:10.398Z,13.35
2018-06-27T06:58:38.564Z,11.12
2018-06-27T07:01:06.707Z,10.73
2018-06-27T07:03:34.844Z,10.77
2018-06-27T07:06:04.499Z,12.65
2018-06-27T07:08:32.604Z,12.68
2018-06-27T07:11:00.774Z,11.38
2018-06-27T07:13:28.952Z,10.80
2018-06-27T07:15:57.085Z,13.20
2018-06-27T07:18:25.218Z,12.32
2018-06-27T07:20:54.111Z,10.68
2018-06-27T07:23:27.328Z,13.35
2018-06-27T07:25:56.034Z,12.23
2018-06-27T07:28:24.239Z,12.00
2018-06-27T07:30:52.358Z,9.27
2018-06-27T07:33:20.498Z,11.25
2018-06-27T07:35:48.620Z,9.82
2018-06-27T07:38:16.744Z,9.70
2018-06-27T07:40:44.870Z,10.70
2018-06-27T07:43:12.983Z,11.20
2018-06-27T07:45:41.119Z,10.68
2018-06-27T07:48:09.257Z,8.25
2018-06-27T07:50:39.051Z,10.68
2018-06-27T07:53:07.182Z,9.93
2018-06-27T07:55:35.312Z,12.80
2018-06-27T07:58:04.223Z,8.63
2018-06-27T08:00:32.323Z,12.35
2018-06-27T08:03:00.474Z,9.93
2018-06-27T08:05:28.589Z,13.55
2018-06-27T08:07:56.716Z,7.93
2018-06-27T08:10:24.840Z,8.80
2018-06-27T08:12:53.013Z,9.87
2018-06-27T08:15:22.105Z,8.80
2018-06-27T08:17:50.314Z,8.60
2018-06-27T08:20:18.350Z,9.60
2018-06-27T08:22:46.506Z,9.60
2018-06-27T08:25:14.645Z,8.85
2018-06-27T08:27:42.776Z,7.83
2018-06-27T08:30:11.101Z,8.20
2018-06-27T08:32:40.083Z,9.30
2018-06-27T08:35:08.614Z,7.80
2018-06-27T08:37:36.765Z,6.00
2018-06-27T08:40:04.952Z,6.30
2018-06-27T08:42:33.087Z,9.33
2018-06-27T08:45:02.059Z,7.70
2018-06-27T08:47:30.166Z,7.67
2018-06-27T08:49:58.427Z,7.80
2018-06-27T08:52:26.523Z,7.17
2018-06-27T08:54:54.743Z,8.27
2018-06-27T08:57:22.861Z,7.67
2018-06-27T08:59:52.554Z,8.87
2018-06-27T09:02:22.518Z,7.33
2018-06-27T09:04:50.732Z,8.53
2018-06-27T09:07:18.868Z,8.03
2018-06-27T09:09:47.918Z,7.67
2018-06-27T09:12:17.702Z,9.07
2018-06-27T09:14:45.894Z,7.20
2018-06-27T09:17:15.754Z,5.90
2018-06-27T09:19:43.974Z,6.73
2018-06-27T09:22:12.100Z,8.03
2018-06-27T09:24:40.221Z,7.70
2018-06-27T09:27:08.333Z,7.13
2018-06-27T09:29:36.467Z,5.57
2018-06-27T09:32:04.580Z,6.10
2018-06-27T09:34:32.710Z,7.63
2018-06-27T09:37:00.825Z,7.70
2018-06-27T09:39:28.927Z,5.70
2018-06-27T09:41:57.094Z,5.20
2018-06-27T09:44:26.012Z,7.10
2018-06-27T09:46:55.038Z,5.70
2018-06-27T09:49:23.151Z,7.10
2018-06-27T09:51:51.866Z,7.03
2018-06-27T09:54:19.975Z,7.07
2018-06-27T09:56:48.138Z,5.70
2018-06-27T09:59:17.180Z,7.00
2018-06-27T10:01:45.344Z,6.00
2018-06-27T10:04:13.472Z,6.97
2018-06-27T10:06:42.361Z,5.87
2018-06-27T10:09:11.250Z,6.90
2018-06-27T10:11:40.149Z,6.50
2018-06-27T10:14:09.049Z,5.73
2018-06-27T10:16:37.937Z,6.03
2018-06-27T10:19:06.820Z,7.63
2018-06-27T10:21:34.956Z,6.27
2018-06-27T10:24:03.153Z,5.77
2018-06-27T10:26:31.300Z,5.53
2018-06-27T10:28:59.404Z,6.63
2018-06-27T10:31:27.529Z,7.70
2018-06-27T10:33:55.638Z,5.53
2018-06-27T10:36:23.783Z,5.03
2018-06-27T10:38:51.909Z,7.53
2018-06-27T10:41:20.777Z,5.60
2018-06-27T10:43:48.952Z,4.43
2018-06-27T10:46:18.333Z,5.20
2018-06-27T10:48:46.444Z,9.23
2018-06-27T10:51:15.326Z,5.53
2018-06-27T10:53:43.707Z,5.43
2018-06-27T10:56:12.611Z,4.90
2018-06-27T10:58:41.496Z,5.47
2018-06-27T11:01:10.385Z,5.40
2018-06-27T11:03:38.471Z,7.63
2018-06-27T11:06:07.555Z,7.83
2018-06-27T11:08:36.645Z,6.20
2018-06-27T11:11:05.307Z,4.40
2018-06-27T11:13:33.422Z,4.13
2018-06-27T11:16:01.542Z,4.97
2018-06-27T11:18:29.654Z,3.90
2018-06-27T11:20:58.543Z,7.20
2018-06-27T11:23:27.493Z,3.10
2018-06-27T11:25:55.624Z,2.30
2018-06-27T11:28:23.738Z,3.23
2018-06-27T11:30:52.093Z,3.90
2018-06-27T11:33:20.220Z,3.27
2018-06-27T11:35:48.339Z,3.37
2018-06-27T11:38:16.443Z,4.20
2018-06-27T11:40:44.557Z,3.07
2018-06-27T11:43:13.516Z,3.07
2018-06-27T11:45:42.329Z,4.60
2018-06-27T11:48:11.207Z,2.97
2018-06-27T11:50:39.311Z,2.60
2018-06-27T11:53:07.414Z,3.00
2018-06-27T11:55:35.545Z,3.00
2018-06-27T11:58:04.673Z,3.37
2018-06-27T12:00:32.795Z,2.90
2018-06-27T12:03:00.919Z,2.70
2018-06-27T12:05:29.078Z,3.90
2018-06-27T12:07:57.432Z,3.27
2018-06-27T12:10:25.533Z,3.27
2018-06-27T12:12:53.654Z,3.07
2018-06-27T12:15:21.779Z,2.37
2018-06-27T12:17:49.918Z,2.27
2018-06-27T12:20:18.808Z,3.10
2018-06-27T12:22:47.162Z,1.97
2018-06-27T12:25:15.282Z,3.13
2018-06-27T12:27:43.401Z,3.03
2018-06-27T12:30:11.511Z,3.50
2018-06-27T12:32:41.258Z,2.80
2018-06-27T12:35:09.421Z,1.67
2018-06-27T12:37:37.536Z,3.13
2018-06-27T12:40:05.705Z,2.40
2018-06-27T12:42:33.820Z,3.30
2018-06-27T12:45:02.746Z,2.20
2018-06-27T12:47:31.278Z,2.43
2018-06-27T12:49:59.517Z,2.30
2018-06-27T12:52:27.528Z,3.30
2018-06-27T12:54:55.639Z,3.60
2018-06-27T12:57:23.767Z,1.97
2018-06-27T12:59:52.179Z,2.70
2018-06-27T13:02:21.308Z,2.33
2018-06-27T13:04:49.499Z,2.00
2018-06-27T13:07:17.629Z,2.57
2018-06-27T13:09:45.743Z,1.40
2018-06-27T13:12:13.875Z,1.80
2018-06-27T13:14:42.494Z,3.17
2018-06-27T13:17:10.613Z,4.90
2018-06-27T13:19:39.485Z,2.87
2018-06-27T13:22:07.590Z,2.17
2018-06-27T13:24:35.726Z,1.87
2018-06-27T13:27:03.835Z,1.97
2018-06-27T13:29:31.952Z,2.20
2018-06-27T13:32:00.069Z,3.60
2018-06-27T13:34:29.055Z,1.97
2018-06-27T13:36:57.924Z,2.50
2018-06-27T13:39:26.029Z,1.60
2018-06-27T13:41:54.891Z,1.90
2018-06-27T13:44:22.999Z,1.10
2018-06-27T13:46:51.879Z,1.57
2018-06-27T13:49:20.743Z,2.87
2018-06-27T13:51:48.856Z,1.53
2018-06-27T13:54:17.094Z,1.83
2018-06-27T13:56:45.203Z,3.10
2018-06-27T13:59:14.078Z,1.30
2018-06-27T14:01:42.177Z,1.47
2018-06-27T14:04:10.397Z,0.83
2018-06-27T14:06:38.509Z,1.17
2018-06-27T14:09:07.389Z,2.70
2018-06-27T14:11:36.277Z,0.97
2018-06-27T14:14:05.143Z,2.00
2018-06-27T14:16:33.258Z,1.73
2018-06-27T14:19:02.133Z,2.30
2018-06-27T14:21:31.006Z,1.40
2018-06-27T14:23:59.138Z,1.07
2018-06-27T14:26:27.985Z,1.47
2018-06-27T14:28:56.855Z,1.20
2018-06-27T14:31:24.982Z,3.13
2018-06-27T14:33:53.232Z,1.20
2018-06-27T14:36:21.326Z,1.33
2018-06-27T14:38:50.367Z,1.30
2018-06-27T14:41:18.516Z,1.23
2018-06-27T14:43:46.736Z,1.20
2018-06-27T14:46:14.871Z,3.33
2018-06-27T14:48:42.984Z,1.60
2018-06-27T14:51:12.088Z,4.87
2018-06-27T14:53:41.043Z,1.40
2018-06-27T14:56:09.182Z,1.23
2018-06-27T14:58:37.317Z,3.53
2018-06-27T15:01:06.301Z,2.27
2018-06-27T15:03:34.400Z,2.47
2018-06-27T15:06:03.264Z,1.30
2018-06-27T15:08:31.373Z,1.57
2018-06-27T15:10:59.526Z,1.47
2018-06-27T15:13:28.361Z,1.33
2018-06-27T15:15:56.480Z,1.27
2018-06-27T15:18:24.598Z,1.30
2018-06-27T15:20:52.793Z,1.30
2018-06-27T15:23:20.967Z,1.70
2018-06-27T15:25:50.216Z,2.07
2018-06-27T15:28:19.010Z,2.70
2018-06-27T15:30:47.127Z,3.23
2018-06-27T15:33:15.229Z,1.25
2018-06-27T15:35:43.344Z,1.90
2018-06-27T15:38:11.451Z,1.30
2018-06-27T15:40:39.565Z,1.30
2018-06-27T15:43:07.655Z,4.17
2018-06-27T15:45:35.764Z,2.10
2018-06-27T15:48:03.871Z,1.87
2018-06-27T15:50:31.963Z,1.57
2018-06-27T15:53:00.066Z,2.30
2018-06-27T15:55:28.167Z,2.17
2018-06-27T15:57:56.291Z,2.10
2018-06-27T16:00:24.401Z,2.37
2018-06-27T16:02:52.550Z,2.17
2018-06-27T16:05:21.493Z,2.03
2018-06-27T16:07:49.611Z,2.10
2018-06-27T16:10:17.725Z,3.27
2018-06-27T16:12:45.821Z,1.60
2018-06-27T16:15:14.791Z,1.90
2018-06-27T16:17:42.911Z,1.60
2018-06-27T16:20:11.055Z,1.23
2018-06-27T16:22:39.153Z,1.87
2018-06-27T16:25:07.288Z,1.20
2018-06-27T16:27:35.403Z,1.53
2018-06-27T16:30:03.787Z,1.30
2018-06-27T16:32:32.244Z,1.20
2018-06-27T16:35:01.220Z,1.40
2018-06-27T16:37:30.111Z,2.17
2018-06-27T16:39:58.210Z,3.10
2018-06-27T16:42:27.088Z,1.83
2018-06-27T16:44:55.953Z,1.80
2018-06-27T16:47:25.534Z,1.90
2018-06-27T16:49:54.487Z,1.20
2018-06-27T16:52:23.361Z,1.50
2018-06-27T16:54:52.440Z,3.17
2018-06-27T16:57:21.352Z,1.63
2018-06-27T16:59:50.232Z,2.00
2018-06-27T17:02:19.465Z,1.50
2018-06-27T17:04:49.224Z,1.73
2018-06-27T17:07:19.817Z,1.90
2018-06-27T17:09:47.938Z,1.47
2018-06-27T17:12:16.108Z,1.80
2018-06-27T17:14:44.324Z,1.30
2018-06-27T17:17:12.427Z,4.47
2018-06-27T17:19:40.533Z,1.37
2018-06-27T17:22:08.657Z,2.83
2018-06-27T17:24:36.787Z,1.20
2018-06-27T17:27:06.257Z,1.87
2018-06-27T17:29:35.356Z,3.03
2018-06-27T17:32:03.456Z,1.63
2018-06-27T17:34:31.604Z,1.30
2018-06-27T17:36:59.731Z,1.43
2018-06-27T17:39:28.616Z,1.30
2018-06-27T17:41:57.490Z,1.83
2018-06-27T17:44:25.643Z,1.43
2018-06-27T17:46:53.811Z,3.47
2018-06-27T17:49:21.899Z,1.83
2018-06-27T17:51:58.904Z,1.80
2018-06-27T17:54:27.772Z,2.47
2018-06-27T17:56:55.894Z,6.70
2018-06-27T17:59:24.422Z,3.50
2018-06-27T18:01:52.534Z,3.83
2018-06-27T18:04:21.523Z,1.87
2018-06-27T18:06:50.406Z,4.15
2018-06-27T18:09:18.502Z,5.10
2018-06-27T18:11:47.061Z,1.43
2018-06-27T18:14:15.288Z,2.53
2018-06-27T18:16:43.487Z,1.87
2018-06-27T18:19:11.592Z,2.10
2018-06-27T18:21:40.460Z,3.30
2018-06-27T18:24:08.786Z,2.00
2018-06-27T18:26:36.919Z,3.10
2018-06-27T18:29:05.869Z,2.00
2018-06-27T18:31:33.915Z,1.80
2018-06-27T18:34:02.046Z,3.73
2018-06-27T18:36:30.156Z,2.40
2018-06-27T18:38:59.393Z,2.63
2018-06-27T18:41:27.515Z,1.53
2018-06-27T18:43:56.690Z,2.60
2018-06-27T18:46:25.064Z,2.43
2018-06-27T18:48:54.006Z,2.00
2018-06-27T18:51:22.167Z,4.50
2018-06-27T18:53:50.300Z,1.73
2018-06-27T18:56:18.466Z,2.13
2018-06-27T18:58:47.438Z,2.23
2018-06-27T19:01:15.513Z,2.90
2018-06-27T19:03:43.643Z,2.00
2018-06-27T19:06:12.510Z,1.87
2018-06-27T19:08:40.733Z,2.00
2018-06-27T19:11:08.830Z,2.77
2018-06-27T19:13:36.951Z,2.33
2018-06-27T19:16:05.882Z,2.00
2018-06-27T19:18:33.982Z,2.50
2018-06-27T19:21:03.018Z,2.37
2018-06-27T19:23:31.136Z,3.00
2018-06-27T19:25:59.272Z,2.27
2018-06-27T19:28:27.379Z,2.60
2018-06-27T19:30:55.560Z,2.77
2018-06-27T19:33:23.669Z,2.00
2018-06-27T19:35:52.718Z,2.30
2018-06-27T19:38:20.846Z,1.93
2018-06-27T19:40:49.734Z,6.03
2018-06-27T19:43:18.805Z,2.30
2018-06-27T19:45:46.981Z,2.30
2018-06-27T19:48:15.017Z,2.30
2018-06-27T19:50:44.805Z,4.90
2018-06-27T19:53:12.894Z,3.53
2018-06-27T19:55:41.398Z,2.50
2018-06-27T19:58:10.286Z,3.40
2018-06-27T20:00:38.383Z,4.10
2018-06-27T20:03:07.261Z,2.60
2018-06-27T20:05:36.112Z,3.07
2018-06-27T20:08:04.251Z,4.33
2018-06-27T20:10:33.201Z,2.80
2018-06-27T20:13:02.047Z,5.70
2018-06-27T20:15:30.168Z,2.43
2018-06-27T20:17:58.547Z,2.63
2018-06-27T20:20:26.660Z,2.30
2018-06-27T20:22:55.557Z,1.90
2018-06-27T20:25:23.678Z,2.37
2018-06-27T20:27:51.806Z,2.57
2018-06-27T20:30:20.718Z,2.50
2018-06-27T20:32:49.451Z,2.27
2018-06-27T20:35:19.094Z,3.80
2018-06-27T20:37:47.964Z,2.30
2018-06-27T20:40:16.822Z,2.93
2018-06-27T20:42:44.941Z,2.30
2018-06-27T20:45:13.209Z,2.50
2018-06-27T20:47:42.104Z,2.90
2018-06-27T20:50:10.994Z,2.57
2018-06-27T20:52:39.886Z,2.30
2018-06-27T20:55:08.125Z,2.40
2018-06-27T20:57:36.301Z,2.47
2018-06-27T21:00:04.457Z,3.10
2018-06-27T21:02:33.876Z,2.60
2018-06-27T21:05:02.051Z,1.90
2018-06-27T21:07:30.219Z,2.33
2018-06-27T21:09:58.330Z,2.78
2018-06-27T21:12:26.464Z,2.97
2018-06-27T21:14:54.587Z,2.47
2018-06-27T21:17:24.792Z,1.92
2018-06-27T21:19:53.724Z,2.65
2018-06-27T21:22:21.850Z,1.90
2018-06-27T21:24:51.736Z,2.75
2018-06-27T21:27:19.847Z,3.05
2018-06-27T21:29:47.974Z,2.85
2018-06-27T21:32:16.132Z,2.87
2018-06-27T21:34:44.312Z,3.97
2018-06-27T21:37:12.456Z,3.97
2018-06-27T21:39:40.559Z,2.37
2018-06-27T21:43:05.734Z,2.60
2018-06-27T21:45:34.982Z,2.47
2018-06-27T21:48:03.097Z,2.25
2018-06-27T21:50:31.983Z,2.92
2018-06-27T21:53:00.888Z,13.77
2018-06-27T21:55:29.085Z,3.03
2018-06-27T21:57:57.221Z,2.60
2018-06-27T22:00:26.115Z,4.00
2018-06-27T22:02:54.997Z,2.87
2018-06-27T22:05:23.980Z,2.45
2018-06-27T22:07:52.104Z,2.70
2018-06-27T22:10:21.073Z,2.70
2018-06-27T22:12:49.951Z,2.80
2018-06-27T22:15:18.927Z,2.30
2018-06-27T22:17:47.115Z,3.17
2018-06-27T22:20:16.094Z,3.08
2018-06-27T22:22:45.472Z,3.03
2018-06-27T22:25:13.672Z,2.65
2018-06-27T22:27:42.696Z,2.50
2018-06-27T22:30:11.428Z,3.17
2018-06-27T22:32:39.561Z,3.65
2018-06-27T22:35:07.863Z,3.15
2018-06-27T22:37:37.432Z,2.83
2018-06-27T22:40:06.762Z,5.07
2018-06-27T22:42:35.711Z,3.20
2018-06-27T22:45:04.613Z,3.37
2018-06-27T22:47:33.513Z,4.20
2018-06-27T22:50:02.390Z,3.67
2018-06-27T22:52:30.539Z,3.35
2018-06-27T22:54:59.430Z,3.75
2018-06-27T22:57:27.544Z,4.00
2018-06-27T22:59:56.577Z,4.12
2018-06-27T23:02:25.471Z,3.72
2018-06-27T23:04:54.312Z,4.20
2018-06-27T23:07:23.221Z,3.45
2018-06-27T23:09:51.331Z,3.97
2018-06-27T23:12:19.444Z,4.43
2018-06-27T23:14:49.436Z,4.35
2018-06-27T23:17:17.536Z,4.47
2018-06-27T23:19:46.475Z,4.25
2018-06-27T23:22:14.606Z,3.60
2018-06-27T23:24:44.563Z,4.20
2018-06-27T23:27:13.374Z,3.67
2018-06-27T23:29:41.528Z,4.03
2018-06-27T23:32:10.285Z,4.55
2018-06-27T23:34:39.160Z,4.40
2018-06-27T23:37:08.069Z,3.85
2018-06-27T23:39:36.196Z,4.87
2018-06-27T23:42:04.316Z,4.50
2018-06-27T23:44:33.475Z,4.97
2018-06-27T23:47:01.592Z,6.25
2018-06-27T23:49:29.742Z,4.72
2018-06-27T23:51:58.751Z,4.75
2018-06-27T23:54:27.663Z,5.12
2018-06-27T23:56:55.766Z,9.18
2018-06-27T23:59:23.904Z,4.30
